sensor_id;sensor_type;location;lat;lon;timestamp;P1;durP1;ratioP1;P2;durP2;ratioP2
17386;SDS011;8811;52.398;9.728;2022-07-19T00:00:23;11.15;;;7.35;;
17386;SDS011;8811;52.398;9.728;2022-07-19T00:02:53;11.45;;;7.47;;
17386;SDS011;8811;52.398;9.728;2022-07-19T00:05:20;9.80;;;7.32;;
17386;SDS011;8811;52.398;9.728;2022-07-19T00:07:48;16.05;;;7.57;;
17386;SDS011;8811;52.398;9.728;2022-07-19T00:10:18;8.95;;;6.95;;
17386;SDS011;8811;52.398;9.728;2022-07-19T00:12:46;11.10;;;7.07;;
17386;SDS011;8811;52.398;9.728;2022-07-19T00:15:15;8.25;;;6.40;;
17386;SDS011;8811;52.398;9.728;2022-07-19T00:17:44;7.65;;;6.75;;
17386;SDS011;8811;52.398;9.728;2022-07-19T00:20:14;9.32;;;6.28;;
17386;SDS011;8811;52.398;9.728;2022-07-19T00:22:43;7.18;;;6.38;;
17386;SDS011;8811;52.398;9.728;2022-07-19T00:25:12;11.77;;;6.68;;
17386;SDS011;8811;52.398;9.728;2022-07-19T00:27:40;8.63;;;6.00;;
17386;SDS011;8811;52.398;9.728;2022-07-19T00:33:31;9.07;;;6.10;;
17386;SDS011;8811;52.398;9.728;2022-07-19T00:35:58;9.20;;;5.93;;
17386;SDS011;8811;52.398;9.728;2022-07-19T00:38:25;8.30;;;6.03;;
17386;SDS011;8811;52.398;9.728;2022-07-19T00:40:53;8.88;;;6.10;;
17386;SDS011;8811;52.398;9.728;2022-07-19T00:43:20;8.05;;;5.97;;
17386;SDS011;8811;52.398;9.728;2022-07-19T00:45:47;17.02;;;6.30;;
17386;SDS011;8811;52.398;9.728;2022-07-19T00:48:14;8.30;;;5.90;;
17386;SDS011;8811;52.398;9.728;2022-07-19T00:50:43;10.30;;;6.35;;
17386;SDS011;8811;52.398;9.728;2022-07-19T00:53:10;8.15;;;5.88;;
17386;SDS011;8811;52.398;9.728;2022-07-19T00:55:41;9.50;;;6.70;;
17386;SDS011;8811;52.398;9.728;2022-07-19T00:58:10;9.23;;;6.63;;
17386;SDS011;8811;52.398;9.728;2022-07-19T01:00:39;8.98;;;6.22;;
17386;SDS011;8811;52.398;9.728;2022-07-19T01:03:07;6.72;;;5.53;;
17386;SDS011;8811;52.398;9.728;2022-07-19T01:05:34;7.30;;;5.55;;
17386;SDS011;8811;52.398;9.728;2022-07-19T01:08:03;9.50;;;6.20;;
17386;SDS011;8811;52.398;9.728;2022-07-19T01:10:32;10.07;;;6.60;;
17386;SDS011;8811;52.398;9.728;2022-07-19T01:13:00;9.20;;;6.97;;
17386;SDS011;8811;52.398;9.728;2022-07-19T01:15:27;8.85;;;6.72;;
17386;SDS011;8811;52.398;9.728;2022-07-19T01:17:54;12.30;;;7.63;;
17386;SDS011;8811;52.398;9.728;2022-07-19T01:20:22;10.95;;;7.55;;
17386;SDS011;8811;52.398;9.728;2022-07-19T01:22:51;11.30;;;7.00;;
17386;SDS011;8811;52.398;9.728;2022-07-19T01:25:19;10.15;;;7.57;;
17386;SDS011;8811;52.398;9.728;2022-07-19T01:27:48;9.10;;;6.55;;
17386;SDS011;8811;52.398;9.728;2022-07-19T01:30:16;8.13;;;6.38;;
17386;SDS011;8811;52.398;9.728;2022-07-19T01:32:44;9.57;;;6.55;;
17386;SDS011;8811;52.398;9.728;2022-07-19T01:35:11;10.43;;;6.75;;
17386;SDS011;8811;52.398;9.728;2022-07-19T01:37:39;10.43;;;6.32;;
17386;SDS011;8811;52.398;9.728;2022-07-19T01:40:09;10.07;;;7.43;;
17386;SDS011;8811;52.398;9.728;2022-07-19T01:42:38;9.75;;;6.10;;
17386;SDS011;8811;52.398;9.728;2022-07-19T01:45:06;8.05;;;5.90;;
17386;SDS011;8811;52.398;9.728;2022-07-19T01:47:35;8.80;;;6.10;;
17386;SDS011;8811;52.398;9.728;2022-07-19T01:50:04;8.30;;;6.25;;
17386;SDS011;8811;52.398;9.728;2022-07-19T01:52:32;7.10;;;5.47;;
17386;SDS011;8811;52.398;9.728;2022-07-19T01:54:59;6.78;;;6.00;;
17386;SDS011;8811;52.398;9.728;2022-07-19T01:57:27;11.48;;;6.60;;
17386;SDS011;8811;52.398;9.728;2022-07-19T01:59:55;8.70;;;5.93;;
17386;SDS011;8811;52.398;9.728;2022-07-19T02:02:22;8.63;;;6.38;;
17386;SDS011;8811;52.398;9.728;2022-07-19T02:04:50;11.23;;;6.63;;
17386;SDS011;8811;52.398;9.728;2022-07-19T02:07:17;8.48;;;6.45;;
17386;SDS011;8811;52.398;9.728;2022-07-19T02:09:44;8.30;;;6.57;;
17386;SDS011;8811;52.398;9.728;2022-07-19T02:12:11;10.20;;;6.20;;
17386;SDS011;8811;52.398;9.728;2022-07-19T02:14:40;7.45;;;5.50;;
17386;SDS011;8811;52.398;9.728;2022-07-19T02:17:07;10.35;;;5.90;;
17386;SDS011;8811;52.398;9.728;2022-07-19T02:19:34;7.00;;;6.15;;
17386;SDS011;8811;52.398;9.728;2022-07-19T02:22:02;8.77;;;6.05;;
17386;SDS011;8811;52.398;9.728;2022-07-19T02:24:29;9.18;;;6.13;;
17386;SDS011;8811;52.398;9.728;2022-07-19T02:26:56;7.45;;;5.93;;
17386;SDS011;8811;52.398;9.728;2022-07-19T02:29:24;8.20;;;5.70;;
17386;SDS011;8811;52.398;9.728;2022-07-19T02:31:52;9.00;;;5.80;;
17386;SDS011;8811;52.398;9.728;2022-07-19T02:34:19;9.40;;;6.50;;
17386;SDS011;8811;52.398;9.728;2022-07-19T02:36:46;10.00;;;6.95;;
17386;SDS011;8811;52.398;9.728;2022-07-19T02:39:14;9.07;;;5.95;;
17386;SDS011;8811;52.398;9.728;2022-07-19T02:41:41;7.13;;;5.78;;
17386;SDS011;8811;52.398;9.728;2022-07-19T02:44:08;7.93;;;6.05;;
17386;SDS011;8811;52.398;9.728;2022-07-19T02:46:35;7.20;;;5.75;;
17386;SDS011;8811;52.398;9.728;2022-07-19T02:49:04;12.40;;;11.02;;
17386;SDS011;8811;52.398;9.728;2022-07-19T02:51:31;46.83;;;35.60;;
17386;SDS011;8811;52.398;9.728;2022-07-19T02:53:58;27.23;;;20.75;;
17386;SDS011;8811;52.398;9.728;2022-07-19T02:56:25;13.95;;;9.75;;
17386;SDS011;8811;52.398;9.728;2022-07-19T02:58:53;11.25;;;7.22;;
17386;SDS011;8811;52.398;9.728;2022-07-19T03:01:20;9.30;;;6.43;;
17386;SDS011;8811;52.398;9.728;2022-07-19T03:03:47;10.00;;;6.47;;
17386;SDS011;8811;52.398;9.728;2022-07-19T03:06:17;9.65;;;6.65;;
17386;SDS011;8811;52.398;9.728;2022-07-19T03:08:45;10.95;;;6.55;;
17386;SDS011;8811;52.398;9.728;2022-07-19T03:11:14;9.25;;;6.63;;
17386;SDS011;8811;52.398;9.728;2022-07-19T03:13:41;8.57;;;6.43;;
17386;SDS011;8811;52.398;9.728;2022-07-19T03:16:08;9.10;;;6.20;;
17386;SDS011;8811;52.398;9.728;2022-07-19T03:18:35;8.35;;;6.25;;
17386;SDS011;8811;52.398;9.728;2022-07-19T03:21:03;7.20;;;5.72;;
17386;SDS011;8811;52.398;9.728;2022-07-19T03:23:33;7.75;;;6.47;;
17386;SDS011;8811;52.398;9.728;2022-07-19T03:26:01;7.88;;;6.40;;
17386;SDS011;8811;52.398;9.728;2022-07-19T03:28:28;11.10;;;5.57;;
17386;SDS011;8811;52.398;9.728;2022-07-19T03:30:55;8.85;;;5.68;;
17386;SDS011;8811;52.398;9.728;2022-07-19T03:33:23;10.77;;;7.85;;
17386;SDS011;8811;52.398;9.728;2022-07-19T03:35:50;22.08;;;16.88;;
17386;SDS011;8811;52.398;9.728;2022-07-19T03:38:18;22.90;;;17.23;;
17386;SDS011;8811;52.398;9.728;2022-07-19T03:40:46;13.93;;;10.75;;
17386;SDS011;8811;52.398;9.728;2022-07-19T03:43:14;12.35;;;8.57;;
17386;SDS011;8811;52.398;9.728;2022-07-19T03:45:41;12.48;;;7.72;;
17386;SDS011;8811;52.398;9.728;2022-07-19T03:48:09;8.07;;;7.15;;
17386;SDS011;8811;52.398;9.728;2022-07-19T03:50:37;9.98;;;6.78;;
17386;SDS011;8811;52.398;9.728;2022-07-19T03:53:04;10.85;;;7.18;;
17386;SDS011;8811;52.398;9.728;2022-07-19T03:55:32;7.55;;;6.05;;
17386;SDS011;8811;52.398;9.728;2022-07-19T03:58:01;10.27;;;6.47;;
17386;SDS011;8811;52.398;9.728;2022-07-19T04:00:28;7.93;;;5.40;;
17386;SDS011;8811;52.398;9.728;2022-07-19T04:02:55;8.35;;;5.43;;
17386;SDS011;8811;52.398;9.728;2022-07-19T04:05:23;8.60;;;5.78;;
17386;SDS011;8811;52.398;9.728;2022-07-19T04:07:50;7.75;;;5.40;;
17386;SDS011;8811;52.398;9.728;2022-07-19T04:10:17;8.75;;;6.60;;
17386;SDS011;8811;52.398;9.728;2022-07-19T04:12:44;9.80;;;6.28;;
17386;SDS011;8811;52.398;9.728;2022-07-19T04:15:13;10.40;;;6.00;;
17386;SDS011;8811;52.398;9.728;2022-07-19T04:17:40;9.95;;;5.95;;
17386;SDS011;8811;52.398;9.728;2022-07-19T04:20:08;7.15;;;6.32;;
17386;SDS011;8811;52.398;9.728;2022-07-19T04:22:36;8.95;;;6.38;;
17386;SDS011;8811;52.398;9.728;2022-07-19T04:25:04;7.55;;;5.88;;
17386;SDS011;8811;52.398;9.728;2022-07-19T04:27:31;8.50;;;6.07;;
17386;SDS011;8811;52.398;9.728;2022-07-19T04:29:59;8.68;;;5.53;;
17386;SDS011;8811;52.398;9.728;2022-07-19T04:32:27;9.10;;;6.65;;
17386;SDS011;8811;52.398;9.728;2022-07-19T04:34:55;7.63;;;6.80;;
17386;SDS011;8811;52.398;9.728;2022-07-19T04:37:22;8.70;;;7.00;;
17386;SDS011;8811;52.398;9.728;2022-07-19T04:39:49;9.70;;;6.43;;
17386;SDS011;8811;52.398;9.728;2022-07-19T04:42:17;6.97;;;5.95;;
17386;SDS011;8811;52.398;9.728;2022-07-19T04:44:44;8.32;;;6.60;;
17386;SDS011;8811;52.398;9.728;2022-07-19T04:47:12;10.88;;;6.47;;
17386;SDS011;8811;52.398;9.728;2022-07-19T04:49:40;11.52;;;7.85;;
17386;SDS011;8811;52.398;9.728;2022-07-19T04:52:07;14.15;;;11.20;;
17386;SDS011;8811;52.398;9.728;2022-07-19T04:54:35;18.42;;;13.27;;
17386;SDS011;8811;52.398;9.728;2022-07-19T04:57:02;15.95;;;11.52;;
17386;SDS011;8811;52.398;9.728;2022-07-19T04:59:29;14.18;;;10.13;;
17386;SDS011;8811;52.398;9.728;2022-07-19T05:01:56;11.50;;;8.80;;
17386;SDS011;8811;52.398;9.728;2022-07-19T05:04:24;10.57;;;7.85;;
17386;SDS011;8811;52.398;9.728;2022-07-19T05:06:52;9.98;;;7.70;;
17386;SDS011;8811;52.398;9.728;2022-07-19T05:09:22;8.88;;;6.47;;
17386;SDS011;8811;52.398;9.728;2022-07-19T05:11:49;10.63;;;6.45;;
17386;SDS011;8811;52.398;9.728;2022-07-19T05:14:17;9.55;;;6.50;;
17386;SDS011;8811;52.398;9.728;2022-07-19T05:16:45;14.45;;;5.60;;
17386;SDS011;8811;52.398;9.728;2022-07-19T05:19:14;10.50;;;7.88;;
17386;SDS011;8811;52.398;9.728;2022-07-19T05:21:42;23.85;;;17.67;;
17386;SDS011;8811;52.398;9.728;2022-07-19T05:24:11;29.55;;;21.15;;
17386;SDS011;8811;52.398;9.728;2022-07-19T05:26:38;20.25;;;14.50;;
17386;SDS011;8811;52.398;9.728;2022-07-19T05:29:06;10.88;;;8.77;;
17386;SDS011;8811;52.398;9.728;2022-07-19T05:31:33;11.00;;;5.65;;
17386;SDS011;8811;52.398;9.728;2022-07-19T05:34:00;10.93;;;5.00;;
17386;SDS011;8811;52.398;9.728;2022-07-19T05:36:28;11.43;;;4.68;;
17386;SDS011;8811;52.398;9.728;2022-07-19T05:38:55;8.95;;;4.38;;
17386;SDS011;8811;52.398;9.728;2022-07-19T05:41:24;6.85;;;4.13;;
17386;SDS011;8811;52.398;9.728;2022-07-19T05:43:51;5.65;;;3.97;;
17386;SDS011;8811;52.398;9.728;2022-07-19T05:46:19;7.32;;;3.92;;
17386;SDS011;8811;52.398;9.728;2022-07-19T05:48:46;5.03;;;3.30;;
17386;SDS011;8811;52.398;9.728;2022-07-19T05:51:13;6.38;;;4.00;;
17386;SDS011;8811;52.398;9.728;2022-07-19T05:53:41;7.47;;;3.65;;
17386;SDS011;8811;52.398;9.728;2022-07-19T05:56:08;7.75;;;4.97;;
17386;SDS011;8811;52.398;9.728;2022-07-19T05:58:37;9.20;;;4.32;;
17386;SDS011;8811;52.398;9.728;2022-07-19T06:01:05;10.82;;;3.60;;
17386;SDS011;8811;52.398;9.728;2022-07-19T06:03:45;5.03;;;2.95;;
17386;SDS011;8811;52.398;9.728;2022-07-19T06:06:13;6.85;;;3.25;;
17386;SDS011;8811;52.398;9.728;2022-07-19T06:08:41;4.60;;;3.22;;
17386;SDS011;8811;52.398;9.728;2022-07-19T06:11:08;8.63;;;3.42;;
17386;SDS011;8811;52.398;9.728;2022-07-19T06:13:36;6.28;;;3.63;;
17386;SDS011;8811;52.398;9.728;2022-07-19T06:16:05;6.68;;;3.47;;
17386;SDS011;8811;52.398;9.728;2022-07-19T06:18:33;6.70;;;3.00;;
17386;SDS011;8811;52.398;9.728;2022-07-19T06:21:02;7.47;;;3.20;;
17386;SDS011;8811;52.398;9.728;2022-07-19T06:23:30;3.70;;;3.00;;
17386;SDS011;8811;52.398;9.728;2022-07-19T06:25:58;6.32;;;3.08;;
17386;SDS011;8811;52.398;9.728;2022-07-19T06:28:25;6.05;;;2.80;;
17386;SDS011;8811;52.398;9.728;2022-07-19T06:30:54;3.78;;;2.92;;
17386;SDS011;8811;52.398;9.728;2022-07-19T06:33:21;6.53;;;3.28;;
17386;SDS011;8811;52.398;9.728;2022-07-19T06:35:49;9.27;;;3.80;;
17386;SDS011;8811;52.398;9.728;2022-07-19T06:38:16;5.28;;;3.05;;
17386;SDS011;8811;52.398;9.728;2022-07-19T06:40:43;4.07;;;3.00;;
17386;SDS011;8811;52.398;9.728;2022-07-19T06:43:11;4.85;;;3.13;;
17386;SDS011;8811;52.398;9.728;2022-07-19T06:45:38;4.30;;;3.00;;
17386;SDS011;8811;52.398;9.728;2022-07-19T06:48:07;3.83;;;3.05;;
17386;SDS011;8811;52.398;9.728;2022-07-19T06:50:34;6.60;;;4.78;;
17386;SDS011;8811;52.398;9.728;2022-07-19T06:53:02;5.10;;;3.22;;
17386;SDS011;8811;52.398;9.728;2022-07-19T06:55:29;7.05;;;3.58;;
17386;SDS011;8811;52.398;9.728;2022-07-19T06:57:56;5.72;;;2.75;;
17386;SDS011;8811;52.398;9.728;2022-07-19T07:00:23;5.50;;;3.00;;
17386;SDS011;8811;52.398;9.728;2022-07-19T07:02:50;7.88;;;3.22;;
17386;SDS011;8811;52.398;9.728;2022-07-19T07:05:19;4.43;;;2.88;;
17386;SDS011;8811;52.398;9.728;2022-07-19T07:07:46;5.45;;;2.90;;
17386;SDS011;8811;52.398;9.728;2022-07-19T07:10:16;5.07;;;3.25;;
17386;SDS011;8811;52.398;9.728;2022-07-19T07:12:44;6.65;;;3.38;;
17386;SDS011;8811;52.398;9.728;2022-07-19T07:15:11;5.45;;;2.88;;
17386;SDS011;8811;52.398;9.728;2022-07-19T07:17:38;7.68;;;3.10;;
17386;SDS011;8811;52.398;9.728;2022-07-19T07:20:07;5.97;;;3.30;;
17386;SDS011;8811;52.398;9.728;2022-07-19T07:22:36;5.53;;;3.15;;
17386;SDS011;8811;52.398;9.728;2022-07-19T07:25:04;10.57;;;3.47;;
17386;SDS011;8811;52.398;9.728;2022-07-19T07:27:32;5.75;;;2.80;;
17386;SDS011;8811;52.398;9.728;2022-07-19T07:29:59;5.05;;;2.80;;
17386;SDS011;8811;52.398;9.728;2022-07-19T07:32:27;4.15;;;3.03;;
17386;SDS011;8811;52.398;9.728;2022-07-19T07:34:54;6.30;;;3.17;;
17386;SDS011;8811;52.398;9.728;2022-07-19T07:37:21;5.30;;;2.80;;
17386;SDS011;8811;52.398;9.728;2022-07-19T07:39:52;5.78;;;2.97;;
17386;SDS011;8811;52.398;9.728;2022-07-19T07:42:20;14.43;;;11.23;;
17386;SDS011;8811;52.398;9.728;2022-07-19T07:44:50;4.00;;;3.58;;
17386;SDS011;8811;52.398;9.728;2022-07-19T07:47:17;4.82;;;2.75;;
17386;SDS011;8811;52.398;9.728;2022-07-19T07:49:45;5.80;;;3.58;;
17386;SDS011;8811;52.398;9.728;2022-07-19T07:52:13;5.32;;;3.00;;
17386;SDS011;8811;52.398;9.728;2022-07-19T07:54:41;9.63;;;5.20;;
17386;SDS011;8811;52.398;9.728;2022-07-19T07:57:09;8.27;;;3.42;;
17386;SDS011;8811;52.398;9.728;2022-07-19T07:59:37;3.20;;;2.88;;
17386;SDS011;8811;52.398;9.728;2022-07-19T08:02:06;5.50;;;3.08;;
17386;SDS011;8811;52.398;9.728;2022-07-19T08:04:34;4.22;;;2.70;;
17386;SDS011;8811;52.398;9.728;2022-07-19T08:07:01;6.38;;;3.00;;
17386;SDS011;8811;52.398;9.728;2022-07-19T08:09:28;5.00;;;3.13;;
17386;SDS011;8811;52.398;9.728;2022-07-19T08:11:56;3.60;;;2.47;;
17386;SDS011;8811;52.398;9.728;2022-07-19T08:14:25;3.85;;;2.95;;
17386;SDS011;8811;52.398;9.728;2022-07-19T08:16:52;4.35;;;2.85;;
17386;SDS011;8811;52.398;9.728;2022-07-19T08:19:20;4.70;;;2.58;;
17386;SDS011;8811;52.398;9.728;2022-07-19T08:21:47;3.72;;;2.30;;
17386;SDS011;8811;52.398;9.728;2022-07-19T08:24:14;4.72;;;3.08;;
17386;SDS011;8811;52.398;9.728;2022-07-19T08:26:41;6.05;;;2.72;;
17386;SDS011;8811;52.398;9.728;2022-07-19T08:29:08;3.95;;;2.45;;
17386;SDS011;8811;52.398;9.728;2022-07-19T08:31:37;2.92;;;2.45;;
17386;SDS011;8811;52.398;9.728;2022-07-19T08:34:04;4.40;;;2.55;;
17386;SDS011;8811;52.398;9.728;2022-07-19T08:36:32;5.18;;;2.63;;
17386;SDS011;8811;52.398;9.728;2022-07-19T08:38:59;3.55;;;2.60;;
17386;SDS011;8811;52.398;9.728;2022-07-19T08:41:26;3.90;;;2.53;;
17386;SDS011;8811;52.398;9.728;2022-07-19T08:43:53;3.00;;;2.67;;
17386;SDS011;8811;52.398;9.728;2022-07-19T08:46:20;4.63;;;2.63;;
17386;SDS011;8811;52.398;9.728;2022-07-19T08:48:49;2.47;;;2.28;;
17386;SDS011;8811;52.398;9.728;2022-07-19T08:51:17;4.20;;;2.60;;
17386;SDS011;8811;52.398;9.728;2022-07-19T08:53:46;4.25;;;2.63;;
17386;SDS011;8811;52.398;9.728;2022-07-19T08:56:13;3.60;;;2.45;;
17386;SDS011;8811;52.398;9.728;2022-07-19T08:58:58;3.42;;;2.63;;
17386;SDS011;8811;52.398;9.728;2022-07-19T09:01:25;6.45;;;2.72;;
17386;SDS011;8811;52.398;9.728;2022-07-19T09:04:06;4.38;;;2.55;;
17386;SDS011;8811;52.398;9.728;2022-07-19T09:09:21;3.42;;;2.65;;
17386;SDS011;8811;52.398;9.728;2022-07-19T09:11:51;2.58;;;2.20;;
17386;SDS011;8811;52.398;9.728;2022-07-19T09:14:20;3.83;;;2.75;;
17386;SDS011;8811;52.398;9.728;2022-07-19T09:16:59;3.60;;;2.38;;
17386;SDS011;8811;52.398;9.728;2022-07-19T09:19:30;5.45;;;2.58;;
17386;SDS011;8811;52.398;9.728;2022-07-19T09:22:00;4.63;;;2.65;;
17386;SDS011;8811;52.398;9.728;2022-07-19T09:24:28;2.85;;;2.10;;
17386;SDS011;8811;52.398;9.728;2022-07-19T09:26:57;2.95;;;2.45;;
17386;SDS011;8811;52.398;9.728;2022-07-19T09:29:27;2.55;;;2.03;;
17386;SDS011;8811;52.398;9.728;2022-07-19T09:32:02;5.53;;;2.92;;
17386;SDS011;8811;52.398;9.728;2022-07-19T09:34:36;4.90;;;2.63;;
17386;SDS011;8811;52.398;9.728;2022-07-19T09:39:53;3.38;;;2.33;;
17386;SDS011;8811;52.398;9.728;2022-07-19T09:42:22;6.00;;;2.42;;
17386;SDS011;8811;52.398;9.728;2022-07-19T09:44:56;2.70;;;2.10;;
17386;SDS011;8811;52.398;9.728;2022-07-19T09:47:29;3.75;;;2.38;;
17386;SDS011;8811;52.398;9.728;2022-07-19T09:49:59;6.43;;;3.20;;
17386;SDS011;8811;52.398;9.728;2022-07-19T09:52:26;5.72;;;2.50;;
17386;SDS011;8811;52.398;9.728;2022-07-19T09:54:53;4.57;;;2.55;;
17386;SDS011;8811;52.398;9.728;2022-07-19T09:57:23;4.28;;;2.70;;
17386;SDS011;8811;52.398;9.728;2022-07-19T09:59:51;5.32;;;2.40;;
17386;SDS011;8811;52.398;9.728;2022-07-19T10:02:22;2.42;;;2.22;;
17386;SDS011;8811;52.398;9.728;2022-07-19T10:04:50;10.13;;;9.13;;
17386;SDS011;8811;52.398;9.728;2022-07-19T10:07:19;4.55;;;3.58;;
17386;SDS011;8811;52.398;9.728;2022-07-19T10:09:46;4.10;;;2.15;;
17386;SDS011;8811;52.398;9.728;2022-07-19T10:12:16;3.50;;;2.30;;
17386;SDS011;8811;52.398;9.728;2022-07-19T10:14:43;3.80;;;2.30;;
17386;SDS011;8811;52.398;9.728;2022-07-19T10:17:14;3.80;;;2.50;;
17386;SDS011;8811;52.398;9.728;2022-07-19T10:19:47;5.05;;;2.25;;
17386;SDS011;8811;52.398;9.728;2022-07-19T10:22:17;3.60;;;2.83;;
17386;SDS011;8811;52.398;9.728;2022-07-19T10:24:49;3.53;;;2.20;;
17386;SDS011;8811;52.398;9.728;2022-07-19T10:30:16;3.42;;;2.40;;
17386;SDS011;8811;52.398;9.728;2022-07-19T10:32:46;5.90;;;2.50;;
17386;SDS011;8811;52.398;9.728;2022-07-19T10:35:16;3.25;;;2.58;;
17386;SDS011;8811;52.398;9.728;2022-07-19T10:40:13;2.95;;;2.50;;
17386;SDS011;8811;52.398;9.728;2022-07-19T10:43:03;3.97;;;3.10;;
17386;SDS011;8811;52.398;9.728;2022-07-19T10:45:31;3.05;;;2.40;;
17386;SDS011;8811;52.398;9.728;2022-07-19T10:48:00;5.65;;;2.60;;
17386;SDS011;8811;52.398;9.728;2022-07-19T10:50:41;3.83;;;2.30;;
17386;SDS011;8811;52.398;9.728;2022-07-19T10:56:24;5.30;;;4.00;;
17386;SDS011;8811;52.398;9.728;2022-07-19T10:59:12;2.45;;;2.25;;
17386;SDS011;8811;52.398;9.728;2022-07-19T11:01:52;3.80;;;2.30;;
17386;SDS011;8811;52.398;9.728;2022-07-19T11:04:22;4.30;;;2.10;;
17386;SDS011;8811;52.398;9.728;2022-07-19T11:07:08;4.60;;;2.20;;
17386;SDS011;8811;52.398;9.728;2022-07-19T11:09:41;3.40;;;2.08;;
17386;SDS011;8811;52.398;9.728;2022-07-19T11:12:22;2.38;;;2.08;;
17386;SDS011;8811;52.398;9.728;2022-07-19T11:14:57;7.53;;;6.10;;
17386;SDS011;8811;52.398;9.728;2022-07-19T11:17:26;8.30;;;7.60;;
17386;SDS011;8811;52.398;9.728;2022-07-19T11:19:57;2.28;;;1.85;;
17386;SDS011;8811;52.398;9.728;2022-07-19T11:22:33;3.15;;;1.80;;
17386;SDS011;8811;52.398;9.728;2022-07-19T11:25:05;2.05;;;1.85;;
17386;SDS011;8811;52.398;9.728;2022-07-19T11:27:35;3.17;;;2.42;;
17386;SDS011;8811;52.398;9.728;2022-07-19T11:30:04;3.08;;;2.30;;
17386;SDS011;8811;52.398;9.728;2022-07-19T11:32:33;5.95;;;2.60;;
17386;SDS011;8811;52.398;9.728;2022-07-19T11:35:00;4.30;;;1.95;;
17386;SDS011;8811;52.398;9.728;2022-07-19T11:37:30;4.10;;;2.17;;
17386;SDS011;8811;52.398;9.728;2022-07-19T11:39:58;6.00;;;2.15;;
17386;SDS011;8811;52.398;9.728;2022-07-19T11:42:30;4.28;;;2.35;;
17386;SDS011;8811;52.398;9.728;2022-07-19T11:45:00;5.55;;;2.80;;
17386;SDS011;8811;52.398;9.728;2022-07-19T11:47:40;2.92;;;2.33;;
17386;SDS011;8811;52.398;9.728;2022-07-19T11:50:08;4.05;;;2.30;;
17386;SDS011;8811;52.398;9.728;2022-07-19T11:52:44;3.45;;;2.20;;
17386;SDS011;8811;52.398;9.728;2022-07-19T11:55:17;3.13;;;2.20;;
17386;SDS011;8811;52.398;9.728;2022-07-19T11:57:46;3.08;;;2.03;;
17386;SDS011;8811;52.398;9.728;2022-07-19T12:00:15;3.55;;;2.38;;
17386;SDS011;8811;52.398;9.728;2022-07-19T12:05:39;3.83;;;2.30;;
17386;SDS011;8811;52.398;9.728;2022-07-19T12:08:20;3.25;;;2.10;;
17386;SDS011;8811;52.398;9.728;2022-07-19T12:10:47;3.33;;;2.33;;
17386;SDS011;8811;52.398;9.728;2022-07-19T12:13:16;4.63;;;2.20;;
17386;SDS011;8811;52.398;9.728;2022-07-19T12:15:59;4.05;;;3.30;;
17386;SDS011;8811;52.398;9.728;2022-07-19T12:18:42;3.67;;;2.38;;
17386;SDS011;8811;52.398;9.728;2022-07-19T12:21:24;3.47;;;2.60;;
17386;SDS011;8811;52.398;9.728;2022-07-19T12:26:45;2.80;;;2.42;;
17386;SDS011;8811;52.398;9.728;2022-07-19T12:29:32;3.85;;;2.60;;
17386;SDS011;8811;52.398;9.728;2022-07-19T12:32:04;4.75;;;2.50;;
17386;SDS011;8811;52.398;9.728;2022-07-19T12:34:43;4.55;;;2.92;;
17386;SDS011;8811;52.398;9.728;2022-07-19T12:37:20;4.95;;;3.28;;
17386;SDS011;8811;52.398;9.728;2022-07-19T12:40:01;5.10;;;2.70;;
17386;SDS011;8811;52.398;9.728;2022-07-19T12:42:37;6.32;;;2.83;;
17386;SDS011;8811;52.398;9.728;2022-07-19T12:45:08;4.60;;;2.80;;
17386;SDS011;8811;52.398;9.728;2022-07-19T12:47:41;3.78;;;2.63;;
17386;SDS011;8811;52.398;9.728;2022-07-19T12:50:18;5.55;;;3.22;;
17386;SDS011;8811;52.398;9.728;2022-07-19T12:52:50;4.95;;;2.65;;
17386;SDS011;8811;52.398;9.728;2022-07-19T12:55:20;3.10;;;2.33;;
17386;SDS011;8811;52.398;9.728;2022-07-19T12:57:53;7.38;;;2.97;;
17386;SDS011;8811;52.398;9.728;2022-07-19T13:00:22;6.30;;;2.90;;
17386;SDS011;8811;52.398;9.728;2022-07-19T13:02:53;3.83;;;2.60;;
17386;SDS011;8811;52.398;9.728;2022-07-19T13:05:22;3.25;;;2.88;;
17386;SDS011;8811;52.398;9.728;2022-07-19T13:07:51;4.75;;;2.47;;
17386;SDS011;8811;52.398;9.728;2022-07-19T13:10:19;3.33;;;2.70;;
17386;SDS011;8811;52.398;9.728;2022-07-19T13:12:48;5.82;;;2.75;;
17386;SDS011;8811;52.398;9.728;2022-07-19T13:15:17;4.90;;;2.60;;
17386;SDS011;8811;52.398;9.728;2022-07-19T13:17:47;4.32;;;2.45;;
17386;SDS011;8811;52.398;9.728;2022-07-19T13:20:18;3.45;;;3.03;;
17386;SDS011;8811;52.398;9.728;2022-07-19T13:22:45;5.50;;;3.05;;
17386;SDS011;8811;52.398;9.728;2022-07-19T13:25:14;4.32;;;2.72;;
17386;SDS011;8811;52.398;9.728;2022-07-19T13:27:44;4.60;;;2.45;;
17386;SDS011;8811;52.398;9.728;2022-07-19T13:30:16;6.13;;;2.40;;
17386;SDS011;8811;52.398;9.728;2022-07-19T13:32:44;4.28;;;2.28;;
17386;SDS011;8811;52.398;9.728;2022-07-19T13:35:14;4.43;;;2.35;;
17386;SDS011;8811;52.398;9.728;2022-07-19T13:37:43;2.45;;;2.22;;
17386;SDS011;8811;52.398;9.728;2022-07-19T13:40:13;3.83;;;2.20;;
17386;SDS011;8811;52.398;9.728;2022-07-19T13:42:41;4.82;;;2.75;;
17386;SDS011;8811;52.398;9.728;2022-07-19T13:45:09;3.70;;;2.50;;
17386;SDS011;8811;52.398;9.728;2022-07-19T13:47:36;3.70;;;2.58;;
17386;SDS011;8811;52.398;9.728;2022-07-19T13:50:04;3.08;;;2.50;;
17386;SDS011;8811;52.398;9.728;2022-07-19T13:52:33;3.67;;;2.35;;
17386;SDS011;8811;52.398;9.728;2022-07-19T13:55:02;2.30;;;2.10;;
17386;SDS011;8811;52.398;9.728;2022-07-19T13:57:30;2.65;;;2.13;;
17386;SDS011;8811;52.398;9.728;2022-07-19T13:59:57;2.38;;;2.22;;
17386;SDS011;8811;52.398;9.728;2022-07-19T14:02:24;3.67;;;3.22;;
17386;SDS011;8811;52.398;9.728;2022-07-19T14:04:52;4.65;;;3.03;;
17386;SDS011;8811;52.398;9.728;2022-07-19T14:07:19;4.20;;;2.45;;
17386;SDS011;8811;52.398;9.728;2022-07-19T14:09:46;3.65;;;3.35;;
17386;SDS011;8811;52.398;9.728;2022-07-19T14:12:15;5.32;;;3.88;;
17386;SDS011;8811;52.398;9.728;2022-07-19T14:14:42;4.57;;;2.85;;
17386;SDS011;8811;52.398;9.728;2022-07-19T14:17:09;6.15;;;2.38;;
17386;SDS011;8811;52.398;9.728;2022-07-19T14:19:36;2.53;;;2.33;;
17386;SDS011;8811;52.398;9.728;2022-07-19T14:22:04;5.03;;;2.50;;
17386;SDS011;8811;52.398;9.728;2022-07-19T14:24:31;3.08;;;2.40;;
17386;SDS011;8811;52.398;9.728;2022-07-19T14:26:58;2.65;;;2.45;;
17386;SDS011;8811;52.398;9.728;2022-07-19T14:29:27;17.40;;;15.70;;
17386;SDS011;8811;52.398;9.728;2022-07-19T14:31:54;32.88;;;29.88;;
17386;SDS011;8811;52.398;9.728;2022-07-19T14:34:21;9.65;;;8.65;;
17386;SDS011;8811;52.398;9.728;2022-07-19T14:36:49;4.93;;;2.70;;
17386;SDS011;8811;52.398;9.728;2022-07-19T14:39:16;2.72;;;2.40;;
17386;SDS011;8811;52.398;9.728;2022-07-19T14:41:43;4.28;;;2.95;;
17386;SDS011;8811;52.398;9.728;2022-07-19T14:44:10;4.20;;;2.53;;
17386;SDS011;8811;52.398;9.728;2022-07-19T14:46:39;3.25;;;2.30;;
17386;SDS011;8811;52.398;9.728;2022-07-19T14:49:06;3.05;;;2.33;;
17386;SDS011;8811;52.398;9.728;2022-07-19T14:51:34;2.70;;;2.50;;
17386;SDS011;8811;52.398;9.728;2022-07-19T14:54:02;4.72;;;2.42;;
17386;SDS011;8811;52.398;9.728;2022-07-19T14:56:29;5.00;;;2.47;;
17386;SDS011;8811;52.398;9.728;2022-07-19T14:58:57;5.55;;;2.80;;
17386;SDS011;8811;52.398;9.728;2022-07-19T15:01:24;3.28;;;2.30;;
17386;SDS011;8811;52.398;9.728;2022-07-19T15:03:52;3.35;;;2.55;;
17386;SDS011;8811;52.398;9.728;2022-07-19T15:06:20;4.53;;;2.70;;
17386;SDS011;8811;52.398;9.728;2022-07-19T15:08:47;7.47;;;5.70;;
17386;SDS011;8811;52.398;9.728;2022-07-19T15:11:15;4.53;;;3.60;;
17386;SDS011;8811;52.398;9.728;2022-07-19T15:13:43;2.58;;;2.30;;
17386;SDS011;8811;52.398;9.728;2022-07-19T15:16:10;2.90;;;2.65;;
17386;SDS011;8811;52.398;9.728;2022-07-19T15:18:37;4.05;;;2.78;;
17386;SDS011;8811;52.398;9.728;2022-07-19T15:21:10;3.78;;;2.75;;
17386;SDS011;8811;52.398;9.728;2022-07-19T15:23:37;4.68;;;2.90;;
17386;SDS011;8811;52.398;9.728;2022-07-19T15:26:06;3.30;;;2.83;;
17386;SDS011;8811;52.398;9.728;2022-07-19T15:28:34;3.00;;;2.28;;
17386;SDS011;8811;52.398;9.728;2022-07-19T15:31:02;4.68;;;2.55;;